Time;durP1;ratioP1;P1;durP2;ratioP2;P2;SDS_P1;SDS_P2;PMS_P1;PMS_P2;Temp;Humidity;BMP_temperature;BMP_pressure;BME280_temperature;BME280_humidity;BME280_pressure;Samples;Min_cycle;Max_cycle;Signal;HPM_P1;HPM_P2
2021/06/24 00:01:06;;;;;;;8.95;5.97;;;11.20;99.90;;;;;;5022882;28;20069;-67
2021/06/24 00:03:34;;;;;;;8.45;6.03;;;11.20;99.90;;;;;;5023404;28;20045;-68
2021/06/24 00:06:01;;;;;;;12.38;6.40;;;11.20;99.90;;;;;;5022914;28;20056;-68
2021/06/24 00:08:27;;;;;;;15.82;6.78;;;11.30;99.90;;;;;;5011532;28;20053;-68
2021/06/24 00:10:56;;;;;;;10.37;6.70;;;11.40;99.90;;;;;;5023343;28;20053;-68
2021/06/24 00:13:23;;;;;;;9.50;6.25;;;11.50;99.90;;;;;;5023149;28;20050;-68
2021/06/24 00:15:50;;;;;;;9.65;5.78;;;11.50;99.90;;;;;;5022891;28;20053;-68
2021/06/24 00:18:16;;;;;;;8.35;6.10;;;11.60;99.90;;;;;;5023806;28;20048;-68
2021/06/24 00:20:43;;;;;;;8.18;5.88;;;11.60;99.90;;;;;;5010038;28;20046;-68
2021/06/24 00:23:10;;;;;;;12.55;6.25;;;11.60;99.90;;;;;;5022867;28;20126;-68
2021/06/24 00:25:37;;;;;;;10.02;6.45;;;11.70;99.90;;;;;;5023135;28;20084;-68
2021/06/24 00:28:04;;;;;;;9.65;5.75;;;11.80;99.90;;;;;;5022649;28;20105;-68
2021/06/24 00:30:30;;;;;;;10.52;5.90;;;11.80;99.90;;;;;;5022786;28;20084;-68
2021/06/24 00:32:56;;;;;;;7.28;5.80;;;11.90;99.90;;;;;;5023066;28;20057;-68
2021/06/24 00:35:22;;;;;;;7.80;5.93;;;11.80;99.90;;;;;;5023118;28;20053;-68
2021/06/24 00:37:48;;;;;;;8.27;5.60;;;11.80;99.90;;;;;;5023209;28;20050;-67
2021/06/24 00:40:15;;;;;;;9.50;6.05;;;11.80;99.90;;;;;;5023136;28;20042;-69
2021/06/24 00:42:42;;;;;;;8.13;5.93;;;11.80;99.90;;;;;;5023167;28;20046;-68
2021/06/24 00:45:10;;;;;;;6.95;5.75;;;11.80;99.90;;;;;;5022202;28;20050;-68
2021/06/24 00:47:36;;;;;;;6.63;5.32;;;11.80;99.90;;;;;;5023130;28;20509;-67
2021/06/24 00:50:05;;;;;;;10.77;5.28;;;11.90;99.90;;;;;;5023051;28;20121;-67
2021/06/24 00:52:30;;;;;;;18.52;5.57;;;12.00;99.90;;;;;;5023110;28;20052;-67
2021/06/24 00:54:56;;;;;;;6.40;4.47;;;12.00;99.90;;;;;;5022477;28;20050;-68
2021/06/24 00:57:24;;;;;;;8.27;5.43;;;12.10;99.90;;;;;;5023166;28;20050;-67
2021/06/24 00:59:49;;;;;;;8.20;4.70;;;12.10;99.90;;;;;;5022531;28;20068;-67
2021/06/24 01:02:15;;;;;;;6.22;4.20;;;12.10;99.90;;;;;;5022858;28;20034;-69
2021/06/24 01:04:41;;;;;;;8.55;4.20;;;12.20;99.90;;;;;;5022814;28;20050;-68
2021/06/24 01:07:07;;;;;;;8.63;4.03;;;12.20;99.90;;;;;;5025168;28;20076;-68
2021/06/24 01:09:33;;;;;;;9.43;4.70;;;12.20;99.90;;;;;;5026508;28;20259;-67
2021/06/24 01:12:03;;;;;;;10.57;4.65;;;12.20;99.90;;;;;;5026861;28;20046;-68
2021/06/24 01:14:29;;;;;;;6.43;4.30;;;12.20;99.90;;;;;;5025879;28;20201;-67
2021/06/24 01:16:54;;;;;;;5.07;4.57;;;12.30;99.90;;;;;;5026446;28;20038;-68
2021/06/24 01:19:20;;;;;;;9.50;4.97;;;12.30;99.90;;;;;;5011122;28;20037;-67
2021/06/24 01:21:47;;;;;;;8.32;4.82;;;12.30;99.90;;;;;;5027097;28;20042;-68
2021/06/24 01:24:14;;;;;;;13.07;5.25;;;12.30;99.90;;;;;;5026041;28;20053;-68
2021/06/24 01:26:41;;;;;;;9.43;5.20;;;12.30;99.90;;;;;;5026271;28;20445;-68
2021/06/24 01:29:08;;;;;;;9.25;5.18;;;12.30;99.90;;;;;;5026575;28;20246;-68
2021/06/24 01:31:35;;;;;;;9.07;5.25;;;12.30;99.90;;;;;;5026017;28;20041;-69
2021/06/24 01:34:07;;;;;;;7.93;5.15;;;12.30;99.90;;;;;;5026221;28;20046;-68
2021/06/24 01:36:34;;;;;;;7.38;5.15;;;12.30;99.90;;;;;;5026336;28;20117;-68
2021/06/24 01:39:00;;;;;;;10.23;5.57;;;12.30;99.90;;;;;;5025590;28;20046;-68
2021/06/24 01:41:26;;;;;;;7.45;5.15;;;12.30;99.90;;;;;;5025967;28;20057;-68
2021/06/24 01:43:52;;;;;;;14.43;5.22;;;12.30;99.90;;;;;;5026041;28;20049;-68
2021/06/24 01:46:18;;;;;;;6.28;4.97;;;12.30;99.90;;;;;;5025563;28;20045;-68
2021/06/24 01:48:43;;;;;;;11.88;5.35;;;12.30;99.90;;;;;;5026213;28;20042;-68
2021/06/24 01:51:10;;;;;;;5.53;4.70;;;12.30;99.90;;;;;;5025815;28;20060;-68
2021/06/24 01:53:36;;;;;;;8.32;5.10;;;12.40;99.90;;;;;;5018140;28;20105;-68
2021/06/24 01:56:03;;;;;;;8.48;4.47;;;12.40;99.90;;;;;;5025795;28;20045;-68
2021/06/24 01:58:29;;;;;;;5.93;4.70;;;12.40;99.90;;;;;;5018497;28;20049;-67
2021/06/24 02:00:59;;;;;;;4.80;4.00;;;12.40;99.90;;;;;;5025433;28;20046;-68
2021/06/24 02:03:26;;;;;;;7.53;5.55;;;12.40;99.90;;;;;;5025439;28;20042;-68
2021/06/24 02:05:57;;;;;;;6.73;5.03;;;12.40;99.90;;;;;;5025220;28;20069;-67
2021/06/24 02:08:25;;;;;;;10.23;5.22;;;12.40;99.90;;;;;;5025466;28;20046;-67
2021/06/24 02:10:52;;;;;;;7.05;5.15;;;12.30;99.90;;;;;;5012047;28;20046;-68
2021/06/24 02:13:17;;;;;;;7.93;4.75;;;12.40;99.90;;;;;;5025468;28;20041;-69
2021/06/24 02:15:43;;;;;;;8.45;5.55;;;12.40;99.90;;;;;;5024567;28;20038;-68
2021/06/24 02:18:10;;;;;;;8.07;5.15;;;12.40;99.90;;;;;;5017556;28;20535;-69
2021/06/24 02:20:36;;;;;;;7.50;5.03;;;12.40;99.90;;;;;;5015645;28;20057;-68
2021/06/24 02:23:02;;;;;;;7.28;5.53;;;12.40;99.90;;;;;;5011549;28;20132;-68
2021/06/24 02:25:28;;;;;;;6.07;4.70;;;12.30;99.90;;;;;;5025153;28;20474;-69
2021/06/24 02:27:55;;;;;;;12.00;5.55;;;12.40;99.90;;;;;;5025202;28;20045;-68
2021/06/24 02:30:22;;;;;;;10.98;4.50;;;12.40;99.90;;;;;;5024929;28;20057;-68
2021/06/24 02:32:49;;;;;;;6.97;4.72;;;12.50;99.90;;;;;;5025170;28;20081;-68
2021/06/24 02:35:16;;;;;;;6.67;4.83;;;12.50;99.90;;;;;;5025011;28;20045;-68
2021/06/24 02:37:46;;;;;;;8.40;5.45;;;12.50;99.90;;;;;;5024712;28;20316;-68
2021/06/24 02:40:14;;;;;;;9.75;5.38;;;12.50;99.90;;;;;;5019158;28;20058;-68
2021/06/24 02:42:40;;;;;;;6.68;5.30;;;12.50;99.90;;;;;;5022210;28;20050;-68
2021/06/24 02:45:09;;;;;;;8.15;5.20;;;12.40;99.90;;;;;;5024325;28;20384;-68
2021/06/24 02:47:35;;;;;;;7.80;5.32;;;12.50;99.90;;;;;;5025158;28;20041;-68
2021/06/24 02:50:01;;;;;;;5.53;4.85;;;12.40;99.90;;;;;;5024207;28;20049;-68
2021/06/24 02:52:27;;;;;;;6.88;4.47;;;12.40;99.90;;;;;;5018024;28;20055;-68
2021/06/24 02:54:52;;;;;;;5.97;4.68;;;12.50;99.90;;;;;;5017835;28;20045;-68
2021/06/24 02:57:19;;;;;;;9.88;5.78;;;12.40;99.90;;;;;;5012061;28;20042;-68
2021/06/24 02:59:45;;;;;;;7.97;4.70;;;12.40;99.90;;;;;;5014569;28;20105;-68
2021/06/24 03:02:12;;;;;;;7.18;5.22;;;12.40;99.90;;;;;;5024671;28;20144;-68
2021/06/24 03:04:38;;;;;;;5.82;4.47;;;12.50;99.90;;;;;;5024290;28;20046;-68
2021/06/24 03:07:04;;;;;;;7.75;4.82;;;12.50;99.90;;;;;;5024308;28;20052;-68
2021/06/24 03:09:29;;;;;;;7.93;5.50;;;12.50;99.90;;;;;;5023564;28;20073;-68
2021/06/24 03:11:55;;;;;;;7.88;4.72;;;12.40;99.90;;;;;;5011526;28;20061;-68
2021/06/24 03:14:22;;;;;;;8.73;4.60;;;12.40;99.90;;;;;;5023904;28;20054;-69
2021/06/24 03:16:48;;;;;;;4.82;4.32;;;12.40;99.90;;;;;;5024260;28;20042;-68
2021/06/24 03:19:14;;;;;;;6.63;4.47;;;12.40;99.90;;;;;;5024221;28;20045;-69
2021/06/24 03:21:40;;;;;;;9.25;4.80;;;12.40;99.90;;;;;;5023894;28;20046;-68
2021/06/24 03:24:08;;;;;;;5.57;3.90;;;12.40;99.90;;;;;;5027907;28;20046;-68
2021/06/24 03:26:35;;;;;;;14.90;5.80;;;12.40;99.90;;;;;;5023588;28;20046;-69
2021/06/24 03:29:03;;;;;;;7.43;4.20;;;12.40;99.90;;;;;;5005906;28;20050;-69
2021/06/24 03:31:29;;;;;;;9.85;5.03;;;12.40;99.90;;;;;;5023378;28;20498;-69
2021/06/24 03:33:54;;;;;;;8.30;4.47;;;12.40;99.90;;;;;;5023652;28;20093;-69
2021/06/24 03:36:21;;;;;;;20.73;4.22;;;12.40;99.90;;;;;;5019112;28;20045;-68
2021/06/24 03:38:48;;;;;;;6.45;4.13;;;12.50;99.90;;;;;;5024479;28;20057;-68
2021/06/24 03:41:15;;;;;;;9.10;4.13;;;12.40;99.90;;;;;;5024084;28;20046;-68
2021/06/24 03:43:42;;;;;;;9.88;4.60;;;12.50;99.90;;;;;;5023736;28;20053;-68
2021/06/24 03:46:08;;;;;;;6.95;4.22;;;12.50;99.90;;;;;;5023160;28;20045;-68
2021/06/24 03:48:35;;;;;;;7.47;4.10;;;12.50;99.90;;;;;;5010454;28;20082;-68
2021/06/24 03:51:01;;;;;;;5.67;3.70;;;12.50;99.90;;;;;;5022859;28;20062;-68
2021/06/24 03:53:27;;;;;;;7.28;4.68;;;12.50;99.90;;;;;;5023815;28;20053;-67
2021/06/24 03:55:53;;;;;;;8.68;3.85;;;12.50;99.90;;;;;;5023451;28;20046;-68
2021/06/24 03:58:18;;;;;;;5.45;4.15;;;12.60;99.90;;;;;;5023559;28;20056;-68
2021/06/24 04:00:47;;;;;;;5.53;4.50;;;12.70;99.90;;;;;;5022333;28;20418;-68
2021/06/24 04:03:14;;;;;;;7.40;4.10;;;12.60;99.90;;;;;;5014715;28;20057;-68
2021/06/24 04:05:41;;;;;;;6.95;4.80;;;12.60;99.90;;;;;;5023521;28;20054;-68
2021/06/24 04:08:08;;;;;;;5.78;4.30;;;12.70;99.90;;;;;;5018102;28;20132;-68
2021/06/24 04:10:35;;;;;;;7.25;5.43;;;12.60;99.90;;;;;;5015144;28;20042;-69
2021/06/24 04:13:00;;;;;;;6.10;5.03;;;12.60;99.90;;;;;;5023483;28;20064;-68
2021/06/24 04:15:28;;;;;;;8.43;5.50;;;12.60;99.90;;;;;;5023237;28;20038;-68
2021/06/24 04:17:54;;;;;;;7.18;4.72;;;12.60;99.90;;;;;;5023493;28;20497;-69
2021/06/24 04:20:20;;;;;;;4.88;4.07;;;12.60;99.90;;;;;;5023298;28;20042;-68
2021/06/24 04:22:47;;;;;;;7.68;5.05;;;12.60;99.90;;;;;;5023746;28;20117;-68
2021/06/24 04:25:17;;;;;;;7.05;4.40;;;12.60;99.90;;;;;;5009489;28;20069;-69
2021/06/24 04:27:45;;;;;;;9.55;5.50;;;12.70;99.90;;;;;;5023376;28;20045;-68
2021/06/24 04:30:15;;;;;;;6.55;4.25;;;12.70;99.90;;;;;;5022860;28;20050;-68
2021/06/24 04:32:41;;;;;;;11.52;4.88;;;12.70;99.90;;;;;;5023276;28;20057;-68
2021/06/24 04:35:08;;;;;;;8.00;4.43;;;12.70;99.90;;;;;;5009004;28;20049;-69
2021/06/24 04:37:34;;;;;;;8.23;4.25;;;12.80;99.90;;;;;;5023252;28;20042;-69
2021/06/24 04:39:59;;;;;;;7.00;4.32;;;12.90;99.90;;;;;;5023250;28;20504;-69
2021/06/24 04:42:25;;;;;;;6.47;5.00;;;12.80;99.90;;;;;;5026796;28;20077;-69
2021/06/24 04:44:51;;;;;;;10.27;5.70;;;12.90;99.90;;;;;;5026580;28;20316;-69
2021/06/24 04:47:17;;;;;;;7.45;4.40;;;13.00;99.90;;;;;;5025707;28;20057;-68
2021/06/24 04:49:43;;;;;;;8.57;4.38;;;13.00;99.90;;;;;;5026804;28;20046;-68
2021/06/24 04:52:09;;;;;;;12.32;5.78;;;13.00;99.90;;;;;;5026980;28;20085;-68
2021/06/24 04:54:35;;;;;;;8.85;5.05;;;13.00;99.90;;;;;;5026872;28;20045;-68
2021/06/24 04:57:01;;;;;;;9.48;4.97;;;13.10;99.90;;;;;;5027040;28;20045;-68
2021/06/24 04:59:27;;;;;;;6.25;5.65;;;13.10;99.90;;;;;;5026426;28;20451;-69
2021/06/24 05:01:53;;;;;;;8.63;5.55;;;13.10;99.90;;;;;;5016750;28;20070;-68
2021/06/24 05:04:18;;;;;;;10.10;6.30;;;13.20;99.90;;;;;;5020950;28;20046;-68
2021/06/24 05:06:49;;;;;;;12.60;6.03;;;13.10;99.90;;;;;;5018576;28;20042;-68
2021/06/24 05:09:22;;;;;;;9.30;5.70;;;13.20;99.90;;;;;;5026700;28;20064;-68
2021/06/24 05:11:48;;;;;;;11.20;6.00;;;13.20;99.90;;;;;;5026670;28;20088;-69
2021/06/24 05:14:14;;;;;;;8.85;4.47;;;13.20;99.90;;;;;;5026154;28;20050;-69
2021/06/24 05:16:40;;;;;;;5.00;3.63;;;13.30;99.90;;;;;;5026164;28;20049;-69
2021/06/24 05:19:07;;;;;;;6.43;4.68;;;13.30;99.90;;;;;;5026593;28;20061;-67
2021/06/24 05:21:32;;;;;;;5.20;3.10;;;13.30;99.90;;;;;;5026412;28;20049;-68
2021/06/24 05:23:58;;;;;;;3.88;2.75;;;13.30;99.90;;;;;;5026272;28;20049;-68
2021/06/24 05:26:24;;;;;;;9.18;2.85;;;13.30;99.90;;;;;;5026373;28;20033;-68
2021/06/24 05:28:50;;;;;;;5.63;3.00;;;13.40;99.90;;;;;;5025613;28;20072;-68
2021/06/24 05:31:16;;;;;;;3.72;2.60;;;13.50;99.90;;;;;;5022636;28;20050;-68
2021/06/24 05:33:42;;;;;;;4.53;2.95;;;13.40;99.90;;;;;;5022025;28;20056;-68
2021/06/24 05:36:08;;;;;;;4.00;2.50;;;13.40;99.90;;;;;;5025996;28;20175;-68
2021/06/24 05:38:34;;;;;;;6.85;2.53;;;13.40;99.90;;;;;;5025924;28;20038;-68
2021/06/24 05:40:59;;;;;;;3.58;2.25;;;13.50;99.90;;;;;;5025770;28;20125;-67
2021/06/24 05:43:25;;;;;;;4.20;2.10;;;13.50;99.90;;;;;;5026768;28;20042;-68
2021/06/24 05:45:51;;;;;;;7.03;2.78;;;13.50;99.90;;;;;;5025449;28;20045;-68
2021/06/24 05:48:17;;;;;;;7.72;2.30;;;13.50;99.90;;;;;;5025746;28;20051;-68
2021/06/24 05:50:43;;;;;;;5.72;1.90;;;13.50;99.90;;;;;;5023696;28;20072;-69
2021/06/24 05:53:09;;;;;;;8.02;1.60;;;13.50;99.90;;;;;;5025811;28;20494;-67
2021/06/24 05:55:48;;;;;;;5.35;1.92;;;13.60;99.90;;;;;;5025804;28;20085;-68
2021/06/24 05:58:18;;;;;;;6.15;2.10;;;13.60;99.90;;;;;;5025948;28;20052;-68
2021/06/24 06:00:45;;;;;;;4.25;1.52;;;13.60;99.90;;;;;;5024035;28;20042;-69
2021/06/24 06:03:11;;;;;;;3.40;1.50;;;13.60;99.90;;;;;;5015089;28;20078;-69
2021/06/24 06:05:37;;;;;;;4.25;1.52;;;13.60;99.90;;;;;;5020395;28;20052;-69
2021/06/24 06:08:05;;;;;;;4.75;1.92;;;13.60;99.90;;;;;;5026141;28;20577;-67
2021/06/24 06:10:35;;;;;;;3.05;1.33;;;13.70;99.90;;;;;;5025628;28;20077;-68
2021/06/24 06:13:01;;;;;;;5.43;1.90;;;13.70;99.90;;;;;;5025013;28;20048;-68
2021/06/24 06:15:27;;;;;;;2.97;1.87;;;13.70;99.90;;;;;;5024679;28;20191;-68
2021/06/24 06:17:53;;;;;;;3.28;1.60;;;13.70;99.90;;;;;;5025576;28;20041;-68
2021/06/24 06:20:20;;;;;;;3.55;1.77;;;13.60;99.90;;;;;;5028150;28;20075;-68
2021/06/24 06:22:46;;;;;;;6.93;2.03;;;13.70;99.90;;;;;;5021631;28;20046;-69
2021/06/24 06:25:13;;;;;;;5.55;1.88;;;13.70;99.90;;;;;;5014089;28;20210;-68
2021/06/24 06:27:40;;;;;;;3.35;1.60;;;13.70;99.90;;;;;;5025436;28;20034;-68
2021/06/24 06:30:06;;;;;;;3.58;1.33;;;13.70;99.90;;;;;;5024547;28;20065;-67
2021/06/24 06:32:33;;;;;;;4.18;1.98;;;13.80;99.90;;;;;;5026776;28;20080;-69
2021/06/24 06:34:58;;;;;;;2.75;1.95;;;13.80;99.90;;;;;;5014984;28;20045;-69
2021/06/24 06:37:24;;;;;;;4.03;1.40;;;13.90;99.90;;;;;;5025025;28;20096;-68
2021/06/24 06:39:50;;;;;;;3.95;1.38;;;14.00;99.90;;;;;;5024623;28;20042;-69
2021/06/24 06:42:16;;;;;;;2.45;1.25;;;14.10;99.90;;;;;;5024946;28;20046;-69
2021/06/24 06:44:41;;;;;;;4.85;1.50;;;14.30;99.90;;;;;;5024459;28;20053;-68
2021/06/24 06:47:07;;;;;;;4.22;1.52;;;14.20;99.90;;;;;;5025012;28;20044;-69
2021/06/24 06:49:43;;;;;;;3.55;1.58;;;14.30;99.90;;;;;;5024823;28;20473;-69
2021/06/24 06:52:09;;;;;;;4.13;1.40;;;14.40;99.90;;;;;;5024488;28;20089;-69
2021/06/24 06:54:36;;;;;;;3.63;1.40;;;14.50;99.90;;;;;;5015011;28;20054;-69
2021/06/24 06:57:02;;;;;;;3.80;1.98;;;14.60;99.90;;;;;;5023238;28;20107;-69
2021/06/24 06:59:29;;;;;;;3.22;1.63;;;14.60;99.90;;;;;;5023156;28;20050;-68
2021/06/24 07:01:56;;;;;;;5.63;1.70;;;14.60;99.90;;;;;;5014664;28;20044;-69
2021/06/24 07:04:21;;;;;;;3.22;1.40;;;14.80;99.90;;;;;;5021459;28;20556;-69
2021/06/24 07:06:48;;;;;;;5.45;1.40;;;15.00;99.90;;;;;;5024420;28;20061;-69
2021/06/24 07:09:14;;;;;;;2.47;1.48;;;15.00;99.90;;;;;;5023765;28;20052;-69
2021/06/24 07:11:40;;;;;;;2.35;1.40;;;15.20;99.90;;;;;;5017709;28;20069;-68
2021/06/24 07:14:06;;;;;;;3.63;1.30;;;15.20;99.90;;;;;;5019140;28;20048;-68
2021/06/24 07:16:32;;;;;;;1.58;1.20;;;15.30;99.90;;;;;;5023578;28;20045;-68
2021/06/24 07:18:58;;;;;;;7.90;1.08;;;15.30;99.90;;;;;;5013614;28;20106;-69
2021/06/24 07:21:23;;;;;;;5.50;1.42;;;15.20;99.90;;;;;;5020665;28;20080;-68
2021/06/24 07:23:49;;;;;;;4.72;1.45;;;15.20;99.90;;;;;;5023925;28;20049;-68
2021/06/24 07:26:15;;;;;;;4.22;1.10;;;15.30;99.90;;;;;;5023941;28;20045;-69
2021/06/24 07:28:42;;;;;;;4.32;1.20;;;15.40;99.90;;;;;;5024056;28;20045;-69
2021/06/24 07:31:07;;;;;;;3.35;1.05;;;15.50;99.90;;;;;;5023434;28;20050;-69
2021/06/24 07:33:34;;;;;;;3.65;1.23;;;15.70;99.90;;;;;;5022629;28;20121;-68
2021/06/24 07:36:01;;;;;;;2.55;1.25;;;15.60;99.90;;;;;;5019359;28;20520;-68
2021/06/24 07:38:28;;;;;;;2.97;1.25;;;15.50;99.90;;;;;;5023983;28;20060;-68
2021/06/24 07:40:54;;;;;;;3.25;1.65;;;15.60;99.90;;;;;;5023797;28;20047;-69
2021/06/24 07:43:20;;;;;;;6.45;2.35;;;15.40;99.90;;;;;;5020226;28;20038;-68
2021/06/24 07:45:46;;;;;;;2.97;1.50;;;15.30;99.90;;;;;;5023330;28;20046;-68
2021/06/24 07:48:12;;;;;;;3.15;1.70;;;15.40;99.90;;;;;;5023877;28;20097;-69
2021/06/24 07:50:38;;;;;;;9.65;1.83;;;15.40;99.90;;;;;;5009922;28;20088;-69
2021/06/24 07:53:07;;;;;;;2.67;1.63;;;15.30;99.90;;;;;;5023714;28;20122;-69
2021/06/24 07:55:33;;;;;;;3.95;2.15;;;15.60;99.90;;;;;;5021630;28;20101;-69
2021/06/24 07:58:04;;;;;;;4.38;2.00;;;15.70;99.90;;;;;;5024154;28;20042;-70
2021/06/24 08:00:31;;;;;;;4.57;2.22;;;15.90;99.90;;;;;;5023402;28;20514;-68
2021/06/24 08:02:57;;;;;;;3.25;1.70;;;15.60;99.90;;;;;;5023500;28;20493;-69
2021/06/24 08:05:23;;;;;;;3.00;1.80;;;15.70;99.90;;;;;;5023383;28;20097;-69
2021/06/24 08:07:49;;;;;;;2.70;1.40;;;15.80;99.90;;;;;;5023316;28;20053;-69
2021/06/24 08:10:16;;;;;;;3.70;1.90;;;15.70;99.90;;;;;;5023209;28;20041;-69
2021/06/24 08:12:43;;;;;;;7.22;1.95;;;15.80;99.90;;;;;;5023198;28;20056;-69
2021/06/24 08:15:11;;;;;;;3.93;2.80;;;15.90;99.90;;;;;;5022391;28;20045;-70
2021/06/24 08:17:37;;;;;;;5.40;2.05;;;15.90;99.90;;;;;;5022584;28;20042;-69
2021/06/24 08:20:05;;;;;;;4.78;1.88;;;16.10;99.90;;;;;;5023290;28;20050;-69
2021/06/24 08:22:31;;;;;;;5.18;1.80;;;16.20;99.90;;;;;;5023293;28;20116;-68
2021/06/24 08:25:04;;;;;;;4.65;2.22;;;15.90;99.90;;;;;;5022987;28;20050;-68
2021/06/24 08:27:30;;;;;;;3.67;2.17;;;15.90;99.90;;;;;;5023526;28;20042;-68
2021/06/24 08:29:57;;;;;;;4.88;2.35;;;16.10;99.90;;;;;;5022677;28;20077;-68
2021/06/24 08:32:23;;;;;;;3.88;1.80;;;16.10;99.90;;;;;;5023281;28;20050;-69
2021/06/24 08:34:50;;;;;;;2.78;2.10;;;16.20;99.90;;;;;;5022796;28;20048;-69
2021/06/24 08:37:16;;;;;;;5.15;2.33;;;16.10;99.90;;;;;;5023023;28;20038;-69
2021/06/24 08:39:43;;;;;;;5.50;2.30;;;16.10;99.90;;;;;;5022686;28;20045;-70
2021/06/24 08:42:09;;;;;;;9.73;2.10;;;16.30;99.90;;;;;;5023115;28;20050;-69
2021/06/24 08:44:35;;;;;;;4.43;1.70;;;16.40;99.90;;;;;;5022495;28;20397;-69
2021/06/24 08:47:02;;;;;;;3.08;1.70;;;16.20;99.90;;;;;;5022875;28;20058;-68
2021/06/24 08:49:28;;;;;;;5.50;1.80;;;16.30;99.90;;;;;;5022734;28;20088;-69
2021/06/24 08:51:56;;;;;;;4.85;1.65;;;16.30;99.90;;;;;;5011301;28;20058;-68
2021/06/24 08:54:22;;;;;;;;;;;16.00;99.90;;;;;;5023572;28;20041;-68
2021/06/24 08:56:48;;;;;;;6.15;2.00;;;16.20;99.90;;;;;;5023434;28;19967;-68
2021/06/24 08:59:15;;;;;;;5.28;1.70;;;16.20;99.90;;;;;;5008892;28;20038;-69
2021/06/24 09:01:53;;;;;;;3.15;1.60;;;16.60;99.90;;;;;;5018920;28;20050;-69
2021/06/24 09:04:24;;;;;;;3.17;1.58;;;16.70;99.90;;;;;;5022218;28;20042;-68
2021/06/24 09:06:51;;;;;;;4.40;2.03;;;16.60;99.90;;;;;;5014348;28;20072;-68
2021/06/24 09:09:25;;;;;;;5.93;2.28;;;16.70;99.90;;;;;;5022701;28;20120;-68
2021/06/24 09:12:02;;;;;;;4.13;1.85;;;16.80;99.90;;;;;;5022707;28;20049;-68
2021/06/24 09:14:48;;;;;;;5.03;2.03;;;16.80;99.90;;;;;;5021798;28;20061;-69
2021/06/24 09:17:44;;;;;;;4.32;2.25;;;16.40;99.90;;;;;;5022866;28;20038;-69
2021/06/24 09:20:19;;;;;;;3.50;2.00;;;16.30;99.90;;;;;;5009275;28;20068;-68
2021/06/24 09:23:10;;;;;;;2.95;1.83;;;16.30;99.90;;;;;;5022798;28;20064;-69
2021/06/24 09:25:39;;;;;;;4.43;2.30;;;16.20;99.90;;;;;;5012334;28;20046;-68
2021/06/24 09:28:05;;;;;;;3.83;1.65;;;16.10;99.90;;;;;;5018947;28;20060;-68
2021/06/24 09:30:35;;;;;;;3.13;1.73;;;16.30;99.90;;;;;;5025998;28;20057;-68
2021/06/24 09:33:15;;;;;;;3.88;1.73;;;16.40;99.90;;;;;;5026301;28;20046;-69
2021/06/24 09:35:52;;;;;;;4.68;2.25;;;16.50;99.90;;;;;;5026064;28;20037;-68
2021/06/24 09:38:18;;;;;;;3.80;1.77;;;16.50;99.90;;;;;;5025759;28;20061;-68
2021/06/24 09:40:52;;;;;;;3.13;2.00;;;16.40;99.90;;;;;;5026037;28;20034;-69
2021/06/24 09:43:24;;;;;;;2.22;1.52;;;16.50;99.90;;;;;;5026135;28;20093;-69
2021/06/24 09:46:06;;;;;;;2.40;1.70;;;16.50;99.90;;;;;;5025654;28;20041;-69
2021/06/24 09:48:37;;;;;;;2.40;1.45;;;16.60;99.90;;;;;;5025975;28;20053;-69
2021/06/24 09:51:17;;;;;;;2.08;1.30;;;16.60;99.90;;;;;;5026188;28;20505;-68
2021/06/24 09:53:56;;;;;;;2.47;1.40;;;16.40;99.90;;;;;;5025698;28;20038;-69
2021/06/24 09:56:26;;;;;;;4.63;1.65;;;16.50;99.90;;;;;;5024872;28;20100;-68
2021/06/24 09:58:53;;;;;;;4.47;1.55;;;16.70;99.90;;;;;;5025601;28;20052;-69
2021/06/24 10:01:49;;;;;;;2.05;1.42;;;16.90;99.90;;;;;;5020084;28;20052;-68
2021/06/24 10:04:31;;;;;;;2.85;1.70;;;16.80;99.90;;;;;;5020500;28;20148;-69
2021/06/24 10:07:00;;;;;;;6.90;1.90;;;16.50;99.90;;;;;;5025473;28;20050;-69
2021/06/24 10:09:28;;;;;;;5.47;1.85;;;16.70;99.90;;;;;;5023081;28;20139;-69
2021/06/24 10:11:55;;;;;;;2.72;1.50;;;16.70;99.90;;;;;;5020157;28;20113;-68
2021/06/24 10:14:21;;;;;;;3.72;1.67;;;16.70;99.90;;;;;;5024655;28;20038;-69
2021/06/24 10:16:52;;;;;;;4.15;1.70;;;16.60;99.90;;;;;;5025735;28;20057;-68
2021/06/24 10:19:24;;;;;;;2.58;1.80;;;16.50;99.90;;;;;;5024919;28;20045;-68
2021/06/24 10:21:54;;;;;;;3.15;1.80;;;16.40;99.90;;;;;;5016656;28;20034;-69
2021/06/24 10:24:25;;;;;;;2.63;1.80;;;16.60;99.90;;;;;;5025109;28;20555;-68
2021/06/24 10:26:53;;;;;;;1.63;1.33;;;16.60;99.90;;;;;;5025372;28;20180;-68
2021/06/24 10:29:22;;;;;;;3.38;1.92;;;16.80;99.90;;;;;;5025080;28;20061;-68
2021/06/24 10:31:53;;;;;;;6.47;1.90;;;16.50;99.90;;;;;;5024587;28;20038;-68
2021/06/24 10:34:20;;;;;;;4.10;2.42;;;16.70;99.90;;;;;;5024840;28;20072;-68
2021/06/24 10:37:09;;;;;;;3.08;1.85;;;16.50;99.90;;;;;;5025298;28;20046;-69
2021/06/24 10:39:37;;;;;;;2.95;1.90;;;16.80;99.90;;;;;;5023989;28;20050;-68
2021/06/24 10:42:05;;;;;;;3.65;1.98;;;16.80;99.90;;;;;;5024595;28;20050;-69
2021/06/24 10:44:50;;;;;;;3.13;1.88;;;16.90;99.90;;;;;;5022087;28;20050;-70
2021/06/24 10:47:45;;;;;;;3.67;2.13;;;16.90;99.90;;;;;;5024334;28;20046;-69
2021/06/24 10:50:32;;;;;;;2.58;1.60;;;16.80;99.90;;;;;;5019678;28;20572;-68
2021/06/24 10:53:19;;;;;;;1.75;1.60;;;17.10;99.90;;;;;;5024542;28;20062;-68
2021/06/24 10:55:49;;;;;;;4.65;2.00;;;17.20;99.90;;;;;;5024773;28;20049;-68
2021/06/24 10:58:21;;;;;;;4.57;2.17;;;17.00;99.90;;;;;;5024503;28;20046;-68
2021/06/24 11:00:53;;;;;;;7.78;2.33;;;17.10;99.90;;;;;;5023161;28;20037;-68
2021/06/24 11:03:31;;;;;;;5.20;2.80;;;17.10;99.90;;;;;;5024343;28;20053;-68
2021/06/24 11:06:10;;;;;;;1.95;1.85;;;17.00;99.90;;;;;;5022583;28;20084;-68
2021/06/24 11:08:40;;;;;;;4.85;2.45;;;16.90;99.90;;;;;;5014012;28;20046;-68
2021/06/24 11:11:07;;;;;;;3.85;2.60;;;16.90;99.90;;;;;;5006582;28;20046;-68
2021/06/24 11:13:39;;;;;;;5.78;3.63;;;16.90;99.90;;;;;;5025149;28;20042;-69
2021/06/24 11:16:20;;;;;;;5.80;2.70;;;16.90;99.90;;;;;;5024310;28;20046;-68
2021/06/24 11:19:04;;;;;;;3.92;2.35;;;17.20;99.90;;;;;;5005298;28;20056;-69
2021/06/24 11:21:30;;;;;;;5.78;2.10;;;17.30;99.90;;;;;;5007768;28;20042;-69
2021/06/24 11:24:01;;;;;;;3.67;1.95;;;17.30;99.90;;;;;;5024310;28;20060;-69
2021/06/24 11:26:27;;;;;;;2.55;2.03;;;17.50;99.90;;;;;;5023815;28;20052;-68
2021/06/24 11:29:11;;;;;;;3.40;2.50;;;17.20;99.90;;;;;;5024083;28;20080;-68
2021/06/24 11:31:54;;;;;;;3.00;2.28;;;17.30;99.90;;;;;;5020485;28;20052;-69
2021/06/24 11:34:40;;;;;;;3.47;2.17;;;17.50;99.90;;;;;;5023885;28;20042;-69
2021/06/24 11:37:16;;;;;;;3.30;2.67;;;17.50;99.90;;;;;;5018404;28;20050;-69
2021/06/24 11:39:49;;;;;;;3.45;2.03;;;17.20;99.90;;;;;;5017034;28;20339;-68
2021/06/24 11:42:18;;;;;;;2.97;1.73;;;17.60;99.90;;;;;;5023947;28;20041;-69
2021/06/24 11:44:53;;;;;;;3.45;2.30;;;17.80;99.90;;;;;;5023220;28;20137;-68
2021/06/24 11:47:23;;;;;;;2.58;2.10;;;17.60;99.90;;;;;;5010003;28;20050;-69
2021/06/24 12:03:36;;;;;;;7.53;2.83;;;18.40;99.90;;;;;;5023634;28;20045;-69
2021/06/24 12:06:02;;;;;;;4.53;2.83;;;18.50;99.90;;;;;;5023177;28;20042;-69
2021/06/24 12:08:28;;;;;;;3.33;2.50;;;18.90;99.90;;;;;;5023716;28;20049;-69
2021/06/24 12:11:32;;;;;;;9.70;2.97;;;19.30;99.90;;;;;;5023213;28;20548;-70
2021/06/24 12:13:57;;;;;;;5.07;2.50;;;19.20;99.90;;;;;;5019974;28;20061;-69
2021/06/24 12:16:23;;;;;;;4.03;2.45;;;19.20;99.90;;;;;;5019400;28;20035;-68
2021/06/24 12:18:49;;;;;;;2.97;2.08;;;18.50;99.90;;;;;;5017794;28;20108;-69
2021/06/24 12:21:16;;;;;;;4.38;2.80;;;18.90;99.90;;;;;;5023149;28;20046;-69
2021/06/24 12:23:44;;;;;;;3.70;2.63;;;18.90;99.90;;;;;;5023398;28;20311;-69
2021/06/24 12:26:11;;;;;;;3.95;2.38;;;19.00;99.90;;;;;;5023138;28;20323;-69
2021/06/24 12:28:37;;;;;;;;;;;18.90;99.90;;;;;;5009552;28;20042;-69
2021/06/24 12:31:06;;;;;;;3.42;2.50;;;19.10;99.90;;;;;;5015025;28;20047;-68
2021/06/24 12:33:33;;;;;;;3.08;2.30;;;19.10;99.90;;;;;;5023136;28;20075;-69
2021/06/24 12:35:59;;;;;;;6.05;2.83;;;18.90;99.90;;;;;;5023001;28;20106;-70
2021/06/24 12:38:27;;;;;;;2.60;2.40;;;18.50;99.90;;;;;;5023031;28;20046;-69
2021/06/24 12:40:58;;;;;;;2.83;2.42;;;18.60;99.90;;;;;;5022932;28;20065;-69
2021/06/24 12:43:28;;;;;;;2.95;2.40;;;18.70;99.90;;;;;;5022858;28;20065;-69
2021/06/24 12:45:56;;;;;;;5.45;3.30;;;18.90;99.90;;;;;;5022707;28;20042;-68
2021/06/24 12:48:26;;;;;;;3.20;2.53;;;19.00;99.90;;;;;;5023042;28;20072;-69
2021/06/24 12:50:52;;;;;;;5.32;2.28;;;19.20;99.90;;;;;;5023228;28;20370;-69
2021/06/24 12:53:35;;;;;;;4.10;2.35;;;19.60;99.90;;;;;;5022773;28;20054;-69
2021/06/24 12:56:02;;;;;;;2.97;2.30;;;19.60;99.90;;;;;;5011013;28;20111;-69
2021/06/24 12:58:28;;;;;;;2.63;2.38;;;19.20;99.90;;;;;;5023555;28;20065;-69
2021/06/24 13:01:09;;;;;;;4.32;2.50;;;19.30;99.90;;;;;;5022283;28;20046;-69
2021/06/24 13:03:58;;;;;;;2.90;2.55;;;19.10;99.90;;;;;;5026535;28;20509;-69
2021/06/24 13:06:24;;;;;;;5.32;2.30;;;19.40;99.90;;;;;;5026902;28;20042;-70